sensor_id;sensor_type;location;lat;lon;timestamp;temperature;humidity
76537;DHT22;65381;51.254;15.592;2023-02-15T00:00:23;0.60;86.70
76537;DHT22;65381;51.254;15.592;2023-02-15T00:03:11;0.60;86.50
76537;DHT22;65381;51.254;15.592;2023-02-15T00:05:39;0.50;86.10
76537;DHT22;65381;51.254;15.592;2023-02-15T00:08:35;0.50;85.80
76537;DHT22;65381;51.254;15.592;2023-02-15T00:11:21;0.40;85.90
76537;DHT22;65381;51.254;15.592;2023-02-15T00:14:14;0.30;86.40
76537;DHT22;65381;51.254;15.592;2023-02-15T00:16:43;0.30;86.60
76537;DHT22;65381;51.254;15.592;2023-02-15T00:19:14;0.30;86.70
76537;DHT22;65381;51.254;15.592;2023-02-15T00:21:43;0.30;86.80
76537;DHT22;65381;51.254;15.592;2023-02-15T00:24:14;0.30;86.70
76537;DHT22;65381;51.254;15.592;2023-02-15T00:26:43;0.30;86.50
76537;DHT22;65381;51.254;15.592;2023-02-15T00:29:13;0.30;86.50
76537;DHT22;65381;51.254;15.592;2023-02-15T00:31:41;0.20;86.20
76537;DHT22;65381;51.254;15.592;2023-02-15T00:34:16;0.20;85.90
76537;DHT22;65381;51.254;15.592;2023-02-15T00:36:45;0.00;85.80
76537;DHT22;65381;51.254;15.592;2023-02-15T00:39:15;0.00;85.60
76537;DHT22;65381;51.254;15.592;2023-02-15T00:41:44;0.00;85.30
76537;DHT22;65381;51.254;15.592;2023-02-15T00:44:14;-0.10;85.00
76537;DHT22;65381;51.254;15.592;2023-02-15T00:46:42;-0.10;85.00
76537;DHT22;65381;51.254;15.592;2023-02-15T00:49:10;-0.10;85.20
76537;DHT22;65381;51.254;15.592;2023-02-15T00:51:38;-0.20;85.30
76537;DHT22;65381;51.254;15.592;2023-02-15T00:54:07;-0.20;85.30
76537;DHT22;65381;51.254;15.592;2023-02-15T00:56:35;-0.20;85.30
76537;DHT22;65381;51.254;15.592;2023-02-15T00:59:03;-0.30;85.20
76537;DHT22;65381;51.254;15.592;2023-02-15T01:01:32;-0.30;85.10
76537;DHT22;65381;51.254;15.592;2023-02-15T01:04:01;-0.40;85.10
76537;DHT22;65381;51.254;15.592;2023-02-15T01:06:29;-0.40;85.20
76537;DHT22;65381;51.254;15.592;2023-02-15T01:08:57;-0.40;85.50
76537;DHT22;65381;51.254;15.592;2023-02-15T01:11:25;-0.50;85.80
76537;DHT22;65381;51.254;15.592;2023-02-15T01:13:57;-0.50;86.10
76537;DHT22;65381;51.254;15.592;2023-02-15T01:16:28;-0.50;86.30
76537;DHT22;65381;51.254;15.592;2023-02-15T01:18:57;-0.50;86.10
76537;DHT22;65381;51.254;15.592;2023-02-15T01:21:25;-0.50;86.10
76537;DHT22;65381;51.254;15.592;2023-02-15T01:23:54;-0.50;86.00
76537;DHT22;65381;51.254;15.592;2023-02-15T01:26:22;-0.50;85.90
76537;DHT22;65381;51.254;15.592;2023-02-15T01:28:50;-0.60;85.80
76537;DHT22;65381;51.254;15.592;2023-02-15T01:31:20;-0.60;85.90
76537;DHT22;65381;51.254;15.592;2023-02-15T01:33:49;-0.60;86.30
76537;DHT22;65381;51.254;15.592;2023-02-15T01:36:17;-0.60;86.60
76537;DHT22;65381;51.254;15.592;2023-02-15T01:38:45;-0.60;86.80
76537;DHT22;65381;51.254;15.592;2023-02-15T01:41:13;-0.60;86.80
76537;DHT22;65381;51.254;15.592;2023-02-15T01:44:00;-0.60;86.70
76537;DHT22;65381;51.254;15.592;2023-02-15T01:46:38;-0.60;86.60
76537;DHT22;65381;51.254;15.592;2023-02-15T01:49:11;-0.60;86.50
76537;DHT22;65381;51.254;15.592;2023-02-15T01:51:43;-0.70;86.20
76537;DHT22;65381;51.254;15.592;2023-02-15T01:54:41;-0.70;86.20
76537;DHT22;65381;51.254;15.592;2023-02-15T01:57:12;-0.60;86.50
76537;DHT22;65381;51.254;15.592;2023-02-15T01:59:44;-0.60;87.10
76537;DHT22;65381;51.254;15.592;2023-02-15T02:02:16;-0.60;87.20
76537;DHT22;65381;51.254;15.592;2023-02-15T02:04:48;-0.60;87.30
76537;DHT22;65381;51.254;15.592;2023-02-15T02:07:21;-0.70;87.30
76537;DHT22;65381;51.254;15.592;2023-02-15T02:09:50;-0.70;87.40
76537;DHT22;65381;51.254;15.592;2023-02-15T02:12:19;-0.70;87.50
76537;DHT22;65381;51.254;15.592;2023-02-15T02:14:48;-0.70;87.50
76537;DHT22;65381;51.254;15.592;2023-02-15T02:26:07;-0.70;86.90
76537;DHT22;65381;51.254;15.592;2023-02-15T02:29:05;-0.90;86.50
76537;DHT22;65381;51.254;15.592;2023-02-15T02:35:01;-1.00;86.10
76537;DHT22;65381;51.254;15.592;2023-02-15T02:43:25;-1.10;86.60
76537;DHT22;65381;51.254;15.592;2023-02-15T02:46:11;-1.10;87.10
76537;DHT22;65381;51.254;15.592;2023-02-15T02:48:42;-1.10;87.70
76537;DHT22;65381;51.254;15.592;2023-02-15T02:51:12;-1.00;87.60
76537;DHT22;65381;51.254;15.592;2023-02-15T02:53:42;-1.00;87.40
76537;DHT22;65381;51.254;15.592;2023-02-15T02:56:33;-0.90;87.20
76537;DHT22;65381;51.254;15.592;2023-02-15T02:59:12;-0.90;87.00
76537;DHT22;65381;51.254;15.592;2023-02-15T03:01:52;-0.90;86.90
76537;DHT22;65381;51.254;15.592;2023-02-15T03:04:28;-1.00;87.00
76537;DHT22;65381;51.254;15.592;2023-02-15T03:07:03;-1.00;86.80
76537;DHT22;65381;51.254;15.592;2023-02-15T03:09:52;-1.00;87.00
76537;DHT22;65381;51.254;15.592;2023-02-15T03:12:34;-1.00;87.30
76537;DHT22;65381;51.254;15.592;2023-02-15T03:15:06;-1.00;87.40
76537;DHT22;65381;51.254;15.592;2023-02-15T03:17:44;-1.00;87.40
76537;DHT22;65381;51.254;15.592;2023-02-15T03:23:03;-1.00;87.90
76537;DHT22;65381;51.254;15.592;2023-02-15T03:25:42;-1.00;88.30
76537;DHT22;65381;51.254;15.592;2023-02-15T03:28:23;-0.90;88.60
76537;DHT22;65381;51.254;15.592;2023-02-15T03:30:56;-0.80;88.60
76537;DHT22;65381;51.254;15.592;2023-02-15T03:33:28;-0.70;88.60
76537;DHT22;65381;51.254;15.592;2023-02-15T03:36:27;-0.70;88.60
76537;DHT22;65381;51.254;15.592;2023-02-15T03:42:01;-0.60;88.40
76537;DHT22;65381;51.254;15.592;2023-02-15T03:44:40;-0.60;88.10
76537;DHT22;65381;51.254;15.592;2023-02-15T03:47:13;-0.60;88.00
76537;DHT22;65381;51.254;15.592;2023-02-15T03:52:28;-0.60;88.30
76537;DHT22;65381;51.254;15.592;2023-02-15T03:54:57;-0.60;88.20
76537;DHT22;65381;51.254;15.592;2023-02-15T03:57:28;-0.60;88.20
76537;DHT22;65381;51.254;15.592;2023-02-15T04:00:22;-0.70;88.00
76537;DHT22;65381;51.254;15.592;2023-02-15T04:05:44;-0.70;88.00
76537;DHT22;65381;51.254;15.592;2023-02-15T04:08:13;-0.70;87.90
76537;DHT22;65381;51.254;15.592;2023-02-15T04:10:41;-0.70;87.80
76537;DHT22;65381;51.254;15.592;2023-02-15T04:13:30;-0.70;87.60
76537;DHT22;65381;51.254;15.592;2023-02-15T04:15:59;-0.70;87.70
76537;DHT22;65381;51.254;15.592;2023-02-15T04:18:41;-0.70;87.60
76537;DHT22;65381;51.254;15.592;2023-02-15T04:21:30;-0.80;87.30
76537;DHT22;65381;51.254;15.592;2023-02-15T04:24:17;-0.80;87.40
76537;DHT22;65381;51.254;15.592;2023-02-15T04:27:04;-0.90;87.70
76537;DHT22;65381;51.254;15.592;2023-02-15T04:29:33;-0.80;87.90
76537;DHT22;65381;51.254;15.592;2023-02-15T04:32:02;-0.80;87.90
76537;DHT22;65381;51.254;15.592;2023-02-15T04:34:30;-0.70;88.00
76537;DHT22;65381;51.254;15.592;2023-02-15T04:36:58;-0.70;88.20
76537;DHT22;65381;51.254;15.592;2023-02-15T04:39:26;-0.70;88.30
76537;DHT22;65381;51.254;15.592;2023-02-15T04:41:55;-0.70;88.40
76537;DHT22;65381;51.254;15.592;2023-02-15T04:44:23;-0.60;88.30
76537;DHT22;65381;51.254;15.592;2023-02-15T04:46:51;-0.60;88.30
76537;DHT22;65381;51.254;15.592;2023-02-15T04:49:20;-0.60;88.10
76537;DHT22;65381;51.254;15.592;2023-02-15T04:51:48;-0.60;87.80
76537;DHT22;65381;51.254;15.592;2023-02-15T04:54:16;-0.60;87.70
76537;DHT22;65381;51.254;15.592;2023-02-15T04:56:44;-0.60;87.60
76537;DHT22;65381;51.254;15.592;2023-02-15T04:59:13;-0.50;87.20
76537;DHT22;65381;51.254;15.592;2023-02-15T05:01:42;-0.60;87.00
76537;DHT22;65381;51.254;15.592;2023-02-15T05:04:10;-0.60;86.70
76537;DHT22;65381;51.254;15.592;2023-02-15T05:06:38;-0.70;86.80
76537;DHT22;65381;51.254;15.592;2023-02-15T05:09:06;-0.70;86.80
76537;DHT22;65381;51.254;15.592;2023-02-15T05:11:35;-0.70;86.50
76537;DHT22;65381;51.254;15.592;2023-02-15T05:14:03;-0.70;86.50
76537;DHT22;65381;51.254;15.592;2023-02-15T05:16:31;-0.90;86.40
76537;DHT22;65381;51.254;15.592;2023-02-15T05:19:00;-0.90;86.50
76537;DHT22;65381;51.254;15.592;2023-02-15T05:21:28;-1.00;86.70
76537;DHT22;65381;51.254;15.592;2023-02-15T05:23:56;-1.00;86.80
76537;DHT22;65381;51.254;15.592;2023-02-15T05:26:25;-1.00;86.90
76537;DHT22;65381;51.254;15.592;2023-02-15T05:29:11;-1.10;87.00
76537;DHT22;65381;51.254;15.592;2023-02-15T05:31:39;-1.10;87.20
76537;DHT22;65381;51.254;15.592;2023-02-15T05:34:07;-1.10;87.50
76537;DHT22;65381;51.254;15.592;2023-02-15T05:36:36;-1.10;87.80
76537;DHT22;65381;51.254;15.592;2023-02-15T05:39:04;-1.10;87.90
76537;DHT22;65381;51.254;15.592;2023-02-15T05:41:33;-1.10;87.90
76537;DHT22;65381;51.254;15.592;2023-02-15T05:44:01;-1.10;87.80
76537;DHT22;65381;51.254;15.592;2023-02-15T05:46:29;-1.10;87.50
76537;DHT22;65381;51.254;15.592;2023-02-15T05:48:57;-1.10;87.50
76537;DHT22;65381;51.254;15.592;2023-02-15T05:51:26;-1.10;87.30
76537;DHT22;65381;51.254;15.592;2023-02-15T05:53:54;-1.10;87.10
76537;DHT22;65381;51.254;15.592;2023-02-15T05:56:22;-1.20;86.80
76537;DHT22;65381;51.254;15.592;2023-02-15T05:58:53;-1.30;86.60
76537;DHT22;65381;51.254;15.592;2023-02-15T06:01:23;-1.30;86.50
76537;DHT22;65381;51.254;15.592;2023-02-15T06:03:51;-1.30;86.40
76537;DHT22;65381;51.254;15.592;2023-02-15T06:06:20;-1.30;86.50
76537;DHT22;65381;51.254;15.592;2023-02-15T06:08:48;-1.40;86.60
76537;DHT22;65381;51.254;15.592;2023-02-15T06:11:16;-1.40;87.50
76537;DHT22;65381;51.254;15.592;2023-02-15T06:13:44;-1.30;87.80
76537;DHT22;65381;51.254;15.592;2023-02-15T06:16:13;-1.30;87.90
76537;DHT22;65381;51.254;15.592;2023-02-15T06:18:43;-1.10;87.80
76537;DHT22;65381;51.254;15.592;2023-02-15T06:21:12;-1.10;87.70
76537;DHT22;65381;51.254;15.592;2023-02-15T06:23:40;-1.10;87.70
76537;DHT22;65381;51.254;15.592;2023-02-15T06:26:09;-1.00;87.70
76537;DHT22;65381;51.254;15.592;2023-02-15T06:28:37;-1.00;87.70
76537;DHT22;65381;51.254;15.592;2023-02-15T06:31:05;-1.00;87.80
76537;DHT22;65381;51.254;15.592;2023-02-15T06:33:34;-0.90;87.90
76537;DHT22;65381;51.254;15.592;2023-02-15T06:36:03;-0.90;88.40
76537;DHT22;65381;51.254;15.592;2023-02-15T06:38:31;-0.70;88.90
76537;DHT22;65381;51.254;15.592;2023-02-15T06:40:59;-0.70;89.10
76537;DHT22;65381;51.254;15.592;2023-02-15T06:43:27;-0.60;89.10
76537;DHT22;65381;51.254;15.592;2023-02-15T06:45:58;-0.50;89.00
76537;DHT22;65381;51.254;15.592;2023-02-15T06:48:26;-0.50;89.00
76537;DHT22;65381;51.254;15.592;2023-02-15T06:50:55;-0.40;89.00
76537;DHT22;65381;51.254;15.592;2023-02-15T06:53:23;-0.40;89.00
76537;DHT22;65381;51.254;15.592;2023-02-15T06:55:51;-0.30;89.20
76537;DHT22;65381;51.254;15.592;2023-02-15T06:58:19;-0.20;89.20
76537;DHT22;65381;51.254;15.592;2023-02-15T07:00:48;-0.20;89.30
76537;DHT22;65381;51.254;15.592;2023-02-15T07:03:18;-0.10;89.50
76537;DHT22;65381;51.254;15.592;2023-02-15T07:05:46;-0.10;89.60
76537;DHT22;65381;51.254;15.592;2023-02-15T07:08:16;0.00;89.60
76537;DHT22;65381;51.254;15.592;2023-02-15T07:10:44;0.00;89.60
76537;DHT22;65381;51.254;15.592;2023-02-15T07:13:12;0.00;89.70
76537;DHT22;65381;51.254;15.592;2023-02-15T07:15:40;0.10;89.80
76537;DHT22;65381;51.254;15.592;2023-02-15T07:18:09;0.20;89.80
76537;DHT22;65381;51.254;15.592;2023-02-15T07:20:38;0.30;89.80
76537;DHT22;65381;51.254;15.592;2023-02-15T07:23:09;0.40;89.90
76537;DHT22;65381;51.254;15.592;2023-02-15T07:25:37;0.50;89.80
76537;DHT22;65381;51.254;15.592;2023-02-15T07:28:05;0.60;89.80
76537;DHT22;65381;51.254;15.592;2023-02-15T07:30:33;0.60;89.80
76537;DHT22;65381;51.254;15.592;2023-02-15T07:33:03;0.70;89.90
76537;DHT22;65381;51.254;15.592;2023-02-15T07:35:52;0.80;90.00
76537;DHT22;65381;51.254;15.592;2023-02-15T07:38:21;0.80;90.00
76537;DHT22;65381;51.254;15.592;2023-02-15T07:40:50;1.00;90.00
76537;DHT22;65381;51.254;15.592;2023-02-15T07:43:18;1.00;90.10
76537;DHT22;65381;51.254;15.592;2023-02-15T07:45:47;1.00;90.20
76537;DHT22;65381;51.254;15.592;2023-02-15T07:48:15;1.10;90.30
76537;DHT22;65381;51.254;15.592;2023-02-15T07:50:43;1.30;90.40
76537;DHT22;65381;51.254;15.592;2023-02-15T07:53:11;1.40;90.30
76537;DHT22;65381;51.254;15.592;2023-02-15T07:55:40;1.50;90.20
76537;DHT22;65381;51.254;15.592;2023-02-15T07:58:08;1.70;90.00
76537;DHT22;65381;51.254;15.592;2023-02-15T08:00:36;1.80;89.80
76537;DHT22;65381;51.254;15.592;2023-02-15T08:03:24;2.10;90.50
76537;DHT22;65381;51.254;15.592;2023-02-15T08:05:59;3.10;93.40
76537;DHT22;65381;51.254;15.592;2023-02-15T08:08:30;4.50;95.40
76537;DHT22;65381;51.254;15.592;2023-02-15T08:11:02;5.90;96.10
76537;DHT22;65381;51.254;15.592;2023-02-15T08:13:51;7.30;96.10
76537;DHT22;65381;51.254;15.592;2023-02-15T08:17:05;9.10;94.80
76537;DHT22;65381;51.254;15.592;2023-02-15T08:19:19;10.40;93.70
76537;DHT22;65381;51.254;15.592;2023-02-15T08:21:53;11.70;92.40
76537;DHT22;65381;51.254;15.592;2023-02-15T08:24:22;12.70;91.90
76537;DHT22;65381;51.254;15.592;2023-02-15T08:26:51;13.60;90.00
76537;DHT22;65381;51.254;15.592;2023-02-15T08:29:22;14.30;90.00
76537;DHT22;65381;51.254;15.592;2023-02-15T08:31:57;15.70;91.70
76537;DHT22;65381;51.254;15.592;2023-02-15T08:34:32;17.40;90.70
76537;DHT22;65381;51.254;15.592;2023-02-15T08:37:00;18.50;86.60
76537;DHT22;65381;51.254;15.592;2023-02-15T08:39:28;18.80;82.50
76537;DHT22;65381;51.254;15.592;2023-02-15T08:41:57;18.50;80.40
76537;DHT22;65381;51.254;15.592;2023-02-15T08:44:25;18.50;80.90
76537;DHT22;65381;51.254;15.592;2023-02-15T08:46:53;18.50;79.80
76537;DHT22;65381;51.254;15.592;2023-02-15T08:49:22;18.50;79.10
76537;DHT22;65381;51.254;15.592;2023-02-15T08:51:52;18.90;80.90
76537;DHT22;65381;51.254;15.592;2023-02-15T08:54:21;19.50;77.60
76537;DHT22;65381;51.254;15.592;2023-02-15T08:56:49;19.30;77.30
76537;DHT22;65381;51.254;15.592;2023-02-15T08:59:22;20.00;78.60
76537;DHT22;65381;51.254;15.592;2023-02-15T09:01:53;21.00;78.60
76537;DHT22;65381;51.254;15.592;2023-02-15T09:04:23;21.50;74.50
76537;DHT22;65381;51.254;15.592;2023-02-15T09:06:52;21.30;73.30
76537;DHT22;65381;51.254;15.592;2023-02-15T09:09:21;20.90;73.00
76537;DHT22;65381;51.254;15.592;2023-02-15T09:11:51;21.20;74.70
76537;DHT22;65381;51.254;15.592;2023-02-15T09:14:26;21.80;73.90
76537;DHT22;65381;51.254;15.592;2023-02-15T09:16:55;22.10;73.30
76537;DHT22;65381;51.254;15.592;2023-02-15T09:19:24;22.50;73.00
76537;DHT22;65381;51.254;15.592;2023-02-15T09:21:52;23.40;72.10
76537;DHT22;65381;51.254;15.592;2023-02-15T09:24:21;23.60;70.50
76537;DHT22;65381;51.254;15.592;2023-02-15T09:26:49;23.80;69.00
76537;DHT22;65381;51.254;15.592;2023-02-15T09:29:19;23.40;69.80
76537;DHT22;65381;51.254;15.592;2023-02-15T09:31:50;24.10;70.80
76537;DHT22;65381;51.254;15.592;2023-02-15T09:34:21;24.60;69.00
76537;DHT22;65381;51.254;15.592;2023-02-15T09:36:50;25.20;69.50
76537;DHT22;65381;51.254;15.592;2023-02-15T09:39:23;25.60;68.20
76537;DHT22;65381;51.254;15.592;2023-02-15T09:47:44;26.60;67.90
76537;DHT22;65381;51.254;15.592;2023-02-15T10:01:41;27.40;62.70
76537;DHT22;65381;51.254;15.592;2023-02-15T10:21:30;29.30;62.10
76537;DHT22;65381;51.254;15.592;2023-02-15T10:26:45;29.40;60.00
76537;DHT22;65381;51.254;15.592;2023-02-15T10:29:35;30.00;61.50
76537;DHT22;65381;51.254;15.592;2023-02-15T10:32:24;30.40;59.80
76537;DHT22;65381;51.254;15.592;2023-02-15T10:40:46;31.50;58.20
76537;DHT22;65381;51.254;15.592;2023-02-15T10:46:32;31.40;57.00
76537;DHT22;65381;51.254;15.592;2023-02-15T10:54:41;30.80;54.80
76537;DHT22;65381;51.254;15.592;2023-02-15T11:03:05;29.90;55.50
76537;DHT22;65381;51.254;15.592;2023-02-15T11:08:12;29.50;56.90
76537;DHT22;65381;51.254;15.592;2023-02-15T11:10:57;30.20;56.70
76537;DHT22;65381;51.254;15.592;2023-02-15T11:13:31;30.50;56.90
76537;DHT22;65381;51.254;15.592;2023-02-15T11:16:22;31.10;55.90
76537;DHT22;65381;51.254;15.592;2023-02-15T11:19:06;31.60;55.40
76537;DHT22;65381;51.254;15.592;2023-02-15T11:21:40;31.70;54.60
76537;DHT22;65381;51.254;15.592;2023-02-15T11:24:16;31.70;53.50
76537;DHT22;65381;51.254;15.592;2023-02-15T11:26:48;31.80;53.20
76537;DHT22;65381;51.254;15.592;2023-02-15T11:29:38;31.90;52.50
76537;DHT22;65381;51.254;15.592;2023-02-15T11:32:32;31.80;53.50
76537;DHT22;65381;51.254;15.592;2023-02-15T11:40:30;30.00;53.70
76537;DHT22;65381;51.254;15.592;2023-02-15T11:43:05;29.80;55.10
76537;DHT22;65381;51.254;15.592;2023-02-15T11:45:34;29.70;54.10
76537;DHT22;65381;51.254;15.592;2023-02-15T11:48:09;29.10;53.50
76537;DHT22;65381;51.254;15.592;2023-02-15T11:50:38;28.50;53.80
76537;DHT22;65381;51.254;15.592;2023-02-15T11:55:40;28.30;53.00
76537;DHT22;65381;51.254;15.592;2023-02-15T12:06:57;29.20;51.70
76537;DHT22;65381;51.254;15.592;2023-02-15T12:09:36;29.70;50.20
76537;DHT22;65381;51.254;15.592;2023-02-15T12:12:23;30.20;49.60
76537;DHT22;65381;51.254;15.592;2023-02-15T12:15:00;30.30;49.70
76537;DHT22;65381;51.254;15.592;2023-02-15T12:17:32;30.50;49.30
76537;DHT22;65381;51.254;15.592;2023-02-15T12:20:05;31.00;48.50
76537;DHT22;65381;51.254;15.592;2023-02-15T12:22:37;31.30;47.90
76537;DHT22;65381;51.254;15.592;2023-02-15T12:25:21;31.00;47.90
76537;DHT22;65381;51.254;15.592;2023-02-15T12:27:50;30.30;47.90
76537;DHT22;65381;51.254;15.592;2023-02-15T12:33:15;28.50;47.70
76537;DHT22;65381;51.254;15.592;2023-02-15T12:35:46;27.50;48.40
76537;DHT22;65381;51.254;15.592;2023-02-15T12:40:58;26.20;48.30
76537;DHT22;65381;51.254;15.592;2023-02-15T12:43:37;26.40;48.70
76537;DHT22;65381;51.254;15.592;2023-02-15T12:46:25;26.90;48.40
76537;DHT22;65381;51.254;15.592;2023-02-15T12:51:51;28.30;47.30
76537;DHT22;65381;51.254;15.592;2023-02-15T12:54:33;28.50;46.80
76537;DHT22;65381;51.254;15.592;2023-02-15T12:57:22;27.50;45.10
76537;DHT22;65381;51.254;15.592;2023-02-15T12:59:52;25.80;46.40
76537;DHT22;65381;51.254;15.592;2023-02-15T13:05:10;25.50;47.80
76537;DHT22;65381;51.254;15.592;2023-02-15T13:07:48;25.50;46.50
76537;DHT22;65381;51.254;15.592;2023-02-15T13:12:57;23.80;48.20
76537;DHT22;65381;51.254;15.592;2023-02-15T13:15:31;24.20;47.90
76537;DHT22;65381;51.254;15.592;2023-02-15T13:18:02;24.50;47.60
76537;DHT22;65381;51.254;15.592;2023-02-15T13:20:32;24.70;47.10
76537;DHT22;65381;51.254;15.592;2023-02-15T13:23:03;24.60;46.90
76537;DHT22;65381;51.254;15.592;2023-02-15T13:25:44;24.00;47.50
76537;DHT22;65381;51.254;15.592;2023-02-15T13:28:19;23.00;47.70
76537;DHT22;65381;51.254;15.592;2023-02-15T13:30:50;22.70;48.00
76537;DHT22;65381;51.254;15.592;2023-02-15T13:33:34;22.80;48.00
76537;DHT22;65381;51.254;15.592;2023-02-15T13:36:17;22.70;48.40
76537;DHT22;65381;51.254;15.592;2023-02-15T13:39:14;23.30;48.40
76537;DHT22;65381;51.254;15.592;2023-02-15T13:50:07;21.70;48.70
76537;DHT22;65381;51.254;15.592;2023-02-15T14:07:20;22.30;47.80
76537;DHT22;65381;51.254;15.592;2023-02-15T14:21:26;19.80;49.40
76537;DHT22;65381;51.254;15.592;2023-02-15T14:26:47;19.40;49.40
76537;DHT22;65381;51.254;15.592;2023-02-15T14:29:36;19.10;49.30
76537;DHT22;65381;51.254;15.592;2023-02-15T14:32:24;18.60;49.70
76537;DHT22;65381;51.254;15.592;2023-02-15T14:34:59;18.30;49.90
76537;DHT22;65381;51.254;15.592;2023-02-15T14:37:49;17.60;49.80
76537;DHT22;65381;51.254;15.592;2023-02-15T14:49:21;15.70;51.30
76537;DHT22;65381;51.254;15.592;2023-02-15T14:51:55;15.50;51.30
76537;DHT22;65381;51.254;15.592;2023-02-15T14:59:46;14.70;51.50
76537;DHT22;65381;51.254;15.592;2023-02-15T15:05:03;14.30;51.50
76537;DHT22;65381;51.254;15.592;2023-02-15T15:07:40;14.00;51.50
76537;DHT22;65381;51.254;15.592;2023-02-15T15:12:50;13.30;52.10
76537;DHT22;65381;51.254;15.592;2023-02-15T15:17:58;12.80;52.30
76537;DHT22;65381;51.254;15.592;2023-02-15T15:34:19;10.50;53.00
76537;DHT22;65381;51.254;15.592;2023-02-15T15:37:43;10.00;53.30
76537;DHT22;65381;51.254;15.592;2023-02-15T15:48:38;8.10;54.50
76537;DHT22;65381;51.254;15.592;2023-02-15T15:51:32;7.80;54.70
76537;DHT22;65381;51.254;15.592;2023-02-15T15:54:02;7.50;54.90
76537;DHT22;65381;51.254;15.592;2023-02-15T15:56:36;7.40;55.00
76537;DHT22;65381;51.254;15.592;2023-02-15T15:59:17;7.20;55.00
76537;DHT22;65381;51.254;15.592;2023-02-15T16:01:47;7.00;55.10
76537;DHT22;65381;51.254;15.592;2023-02-15T16:04:28;6.80;55.20
76537;DHT22;65381;51.254;15.592;2023-02-15T16:07:21;6.50;55.40
76537;DHT22;65381;51.254;15.592;2023-02-15T16:12:37;6.10;55.60
76537;DHT22;65381;51.254;15.592;2023-02-15T16:15:23;5.90;55.70
76537;DHT22;65381;51.254;15.592;2023-02-15T16:17:56;5.70;55.80
76537;DHT22;65381;51.254;15.592;2023-02-15T16:26:06;5.40;56.20
76537;DHT22;65381;51.254;15.592;2023-02-15T16:28:38;5.30;56.20
76537;DHT22;65381;51.254;15.592;2023-02-15T16:31:12;5.30;56.20
76537;DHT22;65381;51.254;15.592;2023-02-15T16:33:44;5.10;56.30
76537;DHT22;65381;51.254;15.592;2023-02-15T16:36:27;5.00;56.40
76537;DHT22;65381;51.254;15.592;2023-02-15T16:41:29;4.90;56.70
76537;DHT22;65381;51.254;15.592;2023-02-15T16:44:06;4.70;56.90
76537;DHT22;65381;51.254;15.592;2023-02-15T16:46:45;4.70;56.90
76537;DHT22;65381;51.254;15.592;2023-02-15T16:49:21;4.60;57.10
76537;DHT22;65381;51.254;15.592;2023-02-15T16:52:00;4.50;57.20
76537;DHT22;65381;51.254;15.592;2023-02-15T16:54:31;4.50;57.10
76537;DHT22;65381;51.254;15.592;2023-02-15T16:57:01;4.40;57.10
76537;DHT22;65381;51.254;15.592;2023-02-15T16:59:39;4.30;57.00
76537;DHT22;65381;51.254;15.592;2023-02-15T17:02:17;4.30;57.10
76537;DHT22;65381;51.254;15.592;2023-02-15T17:07:41;4.00;57.20
76537;DHT22;65381;51.254;15.592;2023-02-15T17:10:29;3.90;57.30
76537;DHT22;65381;51.254;15.592;2023-02-15T17:13:25;3.70;57.40
76537;DHT22;65381;51.254;15.592;2023-02-15T17:18:43;3.50;57.60
76537;DHT22;65381;51.254;15.592;2023-02-15T17:21:19;3.50;57.80
76537;DHT22;65381;51.254;15.592;2023-02-15T17:24:02;3.50;57.90
76537;DHT22;65381;51.254;15.592;2023-02-15T17:26:35;3.40;58.10
76537;DHT22;65381;51.254;15.592;2023-02-15T17:29:46;3.40;58.10
76537;DHT22;65381;51.254;15.592;2023-02-15T17:32:18;3.30;58.10
76537;DHT22;65381;51.254;15.592;2023-02-15T17:37:42;3.30;58.10
76537;DHT22;65381;51.254;15.592;2023-02-15T17:40:32;3.30;58.20
76537;DHT22;65381;51.254;15.592;2023-02-15T17:43:04;3.10;58.20
76537;DHT22;65381;51.254;15.592;2023-02-15T17:45:53;3.10;58.20
76537;DHT22;65381;51.254;15.592;2023-02-15T17:48:33;3.00;58.40
76537;DHT22;65381;51.254;15.592;2023-02-15T17:51:06;3.00;58.40
76537;DHT22;65381;51.254;15.592;2023-02-15T17:53:41;2.90;58.50
76537;DHT22;65381;51.254;15.592;2023-02-15T17:56:34;2.80;58.60
76537;DHT22;65381;51.254;15.592;2023-02-15T17:59:06;2.80;58.70
76537;DHT22;65381;51.254;15.592;2023-02-15T18:01:46;2.80;58.70
76537;DHT22;65381;51.254;15.592;2023-02-15T18:04:37;2.70;58.80
76537;DHT22;65381;51.254;15.592;2023-02-15T18:07:28;2.70;58.90
76537;DHT22;65381;51.254;15.592;2023-02-15T18:10:18;2.60;59.00
76537;DHT22;65381;51.254;15.592;2023-02-15T18:13:08;2.60;59.10
76537;DHT22;65381;51.254;15.592;2023-02-15T18:15:42;2.50;59.20
76537;DHT22;65381;51.254;15.592;2023-02-15T18:18:12;2.50;59.30
76537;DHT22;65381;51.254;15.592;2023-02-15T18:20:44;2.50;59.40
76537;DHT22;65381;51.254;15.592;2023-02-15T18:23:15;2.50;59.60
76537;DHT22;65381;51.254;15.592;2023-02-15T18:25:48;2.50;59.80
76537;DHT22;65381;51.254;15.592;2023-02-15T18:28:19;2.50;59.90
76537;DHT22;65381;51.254;15.592;2023-02-15T18:30:49;2.50;60.00
76537;DHT22;65381;51.254;15.592;2023-02-15T18:33:32;2.50;60.20
76537;DHT22;65381;51.254;15.592;2023-02-15T18:36:06;2.40;60.30
76537;DHT22;65381;51.254;15.592;2023-02-15T18:38:36;2.40;60.30
76537;DHT22;65381;51.254;15.592;2023-02-15T18:41:06;2.40;60.30
76537;DHT22;65381;51.254;15.592;2023-02-15T18:43:36;2.40;60.40
76537;DHT22;65381;51.254;15.592;2023-02-15T18:46:06;2.40;60.50
76537;DHT22;65381;51.254;15.592;2023-02-15T18:48:39;2.40;60.60
76537;DHT22;65381;51.254;15.592;2023-02-15T18:51:21;2.30;60.70
76537;DHT22;65381;51.254;15.592;2023-02-15T18:53:52;2.30;60.80
76537;DHT22;65381;51.254;15.592;2023-02-15T18:56:22;2.20;60.90
76537;DHT22;65381;51.254;15.592;2023-02-15T18:58:53;2.20;61.10
76537;DHT22;65381;51.254;15.592;2023-02-15T19:01:27;2.10;61.30
76537;DHT22;65381;51.254;15.592;2023-02-15T19:03:58;2.10;61.60
76537;DHT22;65381;51.254;15.592;2023-02-15T19:06:28;2.10;61.90
76537;DHT22;65381;51.254;15.592;2023-02-15T19:08:58;2.00;62.00
76537;DHT22;65381;51.254;15.592;2023-02-15T19:11:29;2.00;62.10
76537;DHT22;65381;51.254;15.592;2023-02-15T19:13:58;1.90;62.30
76537;DHT22;65381;51.254;15.592;2023-02-15T19:16:31;1.80;62.40
76537;DHT22;65381;51.254;15.592;2023-02-15T19:19:12;1.70;62.60
76537;DHT22;65381;51.254;15.592;2023-02-15T19:21:43;1.60;62.80
76537;DHT22;65381;51.254;15.592;2023-02-15T19:24:20;1.50;62.90
76537;DHT22;65381;51.254;15.592;2023-02-15T19:26:53;1.40;63.20
76537;DHT22;65381;51.254;15.592;2023-02-15T19:29:26;1.40;63.70
76537;DHT22;65381;51.254;15.592;2023-02-15T19:31:58;1.40;64.00
76537;DHT22;65381;51.254;15.592;2023-02-15T19:34:28;1.40;64.20
76537;DHT22;65381;51.254;15.592;2023-02-15T19:37:02;1.40;64.30
76537;DHT22;65381;51.254;15.592;2023-02-15T19:39:41;1.40;64.50
76537;DHT22;65381;51.254;15.592;2023-02-15T19:42:14;1.40;64.70